Time;durP1;ratioP1;P1;durP2;ratioP2;P2;SDS_P1;SDS_P2;PMS_P1;PMS_P2;Temp;Humidity;BMP_temperature;BMP_pressure;BME280_temperature;BME280_humidity;BME280_pressure;Samples;Min_cycle;Max_cycle;Signal;HPM_P1;HPM_P2
2023/05/20 00:02:12;;;;;;;6.72;4.72;;;;;;;14.69;85.41;95601.69;4972435;28;20211;-89
2023/05/20 00:04:40;;;;;;;5.65;5.10;;;;;;;14.71;84.89;95602.28;4972959;28;20722;-88
2023/05/20 00:07:07;;;;;;;5.90;5.20;;;;;;;14.68;85.35;95597.50;4974409;28;20208;-88
2023/05/20 00:09:33;;;;;;;5.90;5.30;;;;;;;14.60;85.83;95591.75;4974621;28;20200;-87
2023/05/20 00:12:01;;;;;;;6.25;5.65;;;;;;;14.56;86.28;95599.13;4982546;28;20199;-89
2023/05/20 00:14:27;;;;;;;4.97;4.55;;;;;;;14.53;85.91;95599.50;4992519;28;20226;-90
2023/05/20 00:16:54;;;;;;;4.43;4.03;;;;;;;14.56;85.96;95603.50;4987720;28;20203;-89
2023/05/20 00:19:20;;;;;;;5.43;4.35;;;;;;;14.50;86.13;95600.69;4975522;28;20196;-89
2023/05/20 00:21:47;;;;;;;4.80;4.32;;;;;;;14.51;86.67;95598.91;4975800;28;20204;-90
2023/05/20 00:24:13;;;;;;;4.18;3.80;;;;;;;14.55;86.17;95597.53;4975254;28;20494;-90
2023/05/20 00:26:39;;;;;;;4.43;4.03;;;;;;;14.62;85.90;95600.91;4976206;28;20853;-88
2023/05/20 00:29:07;;;;;;;4.28;3.88;;;;;;;14.56;85.79;95593.94;4975666;28;20211;-89
2023/05/20 00:31:34;;;;;;;4.50;4.10;;;;;;;14.51;85.96;95598.91;4975467;28;20200;-87
2023/05/20 00:34:00;;;;;;;4.50;4.10;;;;;;;14.54;85.56;95597.72;4975548;28;20649;-88
2023/05/20 00:36:27;;;;;;;4.97;4.20;;;;;;;14.56;85.76;95598.31;4975381;28;20203;-89
2023/05/20 00:38:53;;;;;;;4.57;4.18;;;;;;;14.54;85.66;95592.53;4974973;28;20243;-89
2023/05/20 00:41:20;;;;;;;4.93;4.43;;;;;;;14.46;85.96;95594.31;4975295;28;20211;-88
2023/05/20 00:43:46;;;;;;;4.68;4.25;;;;;;;14.38;86.66;95597.09;4976264;28;20227;-89
2023/05/20 00:46:14;;;;;;;4.80;4.43;;;;;;;14.40;87.21;95594.31;4976823;28;20231;-89
2023/05/20 00:48:43;;;;;;;5.05;4.53;;;;;;;14.51;86.14;95598.91;4975798;28;20193;-88
2023/05/20 00:51:10;;;;;;;5.10;4.22;;;;;;;14.58;85.92;95594.53;4975379;28;20709;-88
2023/05/20 00:53:37;;;;;;;5.88;4.50;;;;;;;14.58;85.39;95591.94;4975930;28;20235;-88
2023/05/20 00:56:04;;;;;;;5.07;4.68;;;;;;;14.61;85.45;95595.94;4975232;28;20211;-88
2023/05/20 00:58:31;;;;;;;5.00;4.60;;;;;;;14.64;85.22;95603.28;4975194;28;20232;-87
2023/05/20 01:00:57;;;;;;;5.40;4.65;;;;;;;14.64;85.56;95600.69;4975295;28;20228;-89
2023/05/20 01:03:26;;;;;;;5.07;4.63;;;;;;;14.65;85.48;95592.72;4974700;28;20219;-89
2023/05/20 01:05:52;;;;;;;6.95;4.88;;;;;;;14.55;85.98;95587.16;4975335;28;20219;-89
2023/05/20 01:08:19;;;;;;;5.15;4.75;;;;;;;14.59;85.99;95584.97;4982741;28;20204;-89
2023/05/20 01:10:49;;;;;;;5.22;4.72;;;;;;;14.54;86.12;95590.75;4977065;28;20207;-89
2023/05/20 01:13:19;;;;;;;5.13;4.72;;;;;;;14.55;86.72;95581.97;4975523;28;20231;-88
2023/05/20 01:15:48;;;;;;;5.55;4.63;;;;;;;14.60;86.13;95574.41;4974955;28;20694;-87
2023/05/20 01:18:17;;;;;;;5.50;5.10;;;;;;;14.61;85.91;95570.81;4974642;28;20204;-89
2023/05/20 01:20:50;;;;;;;5.72;5.22;;;;;;;14.60;86.37;95571.00;4955946;28;20212;-90
2023/05/20 01:23:20;;;;;;;5.60;5.10;;;;;;;14.56;86.79;95570.59;4956689;28;20224;-88
2023/05/20 01:25:46;;;;;;;5.53;5.03;;;;;;;14.60;86.51;95586.56;4971646;28;20306;-87
2023/05/20 01:28:16;;;;;;;5.75;5.25;;;;;;;14.68;86.02;95576.75;4975451;28;20214;-88
2023/05/20 01:30:52;;;;;;;6.35;4.78;;;;;;;14.66;85.90;95578.75;4974461;28;20208;-88
2023/05/20 01:33:20;;;;;;;5.80;5.30;;;;;;;14.55;87.03;95574.19;4980224;28;20239;-89
2023/05/20 01:35:47;;;;;;;5.47;4.97;;;;;;;14.50;87.18;95564.44;4974761;28;20698;-89
2023/05/20 01:38:16;;;;;;;5.40;4.90;;;;;;;14.55;87.14;95560.44;4975365;28;20200;-89
2023/05/20 01:40:46;;;;;;;5.53;5.13;;;;;;;14.55;86.37;95573.41;4971457;28;20213;-90
2023/05/20 01:43:13;;;;;;;5.88;5.35;;;;;;;14.54;86.74;95564.03;4975152;28;20687;-89
2023/05/20 01:45:41;;;;;;;5.88;5.32;;;;;;;14.49;87.34;95565.44;4975069;28;20223;-90
2023/05/20 01:48:11;;;;;;;5.70;5.20;;;;;;;14.49;87.27;95567.22;4975296;28;20295;-89
2023/05/20 01:50:37;;;;;;;6.00;5.47;;;;;;;14.43;87.33;95565.44;4974444;28;20200;-88
2023/05/20 01:53:04;;;;;;;5.78;5.28;;;;;;;14.36;88.04;95564.63;4975548;28;20215;-88
2023/05/20 01:55:31;;;;;;;5.68;5.05;;;;;;;14.40;88.00;95564.06;4975149;28;20206;-89
2023/05/20 01:57:59;;;;;;;5.43;4.93;;;;;;;14.37;88.40;95564.41;4975426;28;20200;-89
2023/05/20 02:00:25;;;;;;;5.80;5.30;;;;;;;14.44;88.00;95567.00;4975487;28;20200;-90
2023/05/20 02:02:52;;;;;;;6.20;5.63;;;;;;;14.36;88.33;95567.22;4973784;28;20200;-89
2023/05/20 02:05:18;;;;;;;6.47;5.70;;;;;;;14.36;87.96;95567.22;4984322;28;20219;-89
2023/05/20 02:07:45;;;;;;;6.43;5.28;;;;;;;14.36;89.01;95562.03;4977546;28;20229;-90
2023/05/20 02:10:11;;;;;;;6.13;5.63;;;;;;;14.41;88.45;95550.09;4974508;28;20770;-89
2023/05/20 02:12:38;;;;;;;6.10;5.53;;;;;;;14.42;88.44;95556.88;4975359;28;20214;-89
2023/05/20 02:15:07;;;;;;;6.47;5.88;;;;;;;14.50;87.54;95548.09;4974430;28;20216;-90
2023/05/20 02:17:33;;;;;;;6.50;5.90;;;;;;;14.48;87.72;95548.28;4975275;28;20200;-89
2023/05/20 02:20:00;;;;;;;6.18;5.57;;;;;;;14.42;88.00;95554.28;4974803;28;20204;-92
2023/05/20 02:22:30;;;;;;;6.93;6.32;;;;;;;14.39;88.26;95559.03;4974029;28;20204;-88
2023/05/20 02:24:56;;;;;;;6.90;6.30;;;;;;;14.33;89.25;95558.03;4973852;28;20259;-89
2023/05/20 02:27:22;;;;;;;6.65;6.15;;;;;;;14.28;89.36;95565.59;4974655;28;20204;-89
2023/05/20 02:29:56;;;;;;;7.93;7.00;;;;;;;14.23;90.02;95570.59;4979825;28;20250;-88
2023/05/20 02:32:26;;;;;;;7.03;6.32;;;;;;;14.19;90.75;95569.41;4974861;28;20224;-89
2023/05/20 02:34:53;;;;;;;7.32;6.63;;;;;;;14.18;90.89;95571.19;4974974;28;20216;-88
2023/05/20 02:37:19;;;;;;;7.65;6.72;;;;;;;14.29;89.66;95567.19;4975076;28;20199;-89
2023/05/20 02:39:46;;;;;;;6.70;6.10;;;;;;;14.39;88.91;95554.66;4974414;28;20219;-87
2023/05/20 02:42:13;;;;;;;7.13;6.43;;;;;;;14.48;88.41;95561.25;4974305;28;20209;-87
2023/05/20 02:44:40;;;;;;;6.75;6.15;;;;;;;14.49;88.82;95560.25;4973854;28;20723;-87
2023/05/20 02:47:06;;;;;;;6.82;6.18;;;;;;;14.52;88.27;95564.22;4975797;28;20228;-89
2023/05/20 02:49:34;;;;;;;6.70;6.10;;;;;;;14.53;88.06;95560.66;4978415;28;20200;-88
2023/05/20 02:52:01;;;;;;;6.78;5.85;;;;;;;14.53;87.89;95558.06;4978000;28;20296;-89
2023/05/20 02:54:27;;;;;;;7.07;6.43;;;;;;;14.54;87.92;95561.44;4977972;28;20216;-88
2023/05/20 02:56:54;;;;;;;6.78;6.18;;;;;;;14.54;88.27;95562.25;4977729;28;20197;-88
2023/05/20 02:59:20;;;;;;;6.95;6.30;;;;;;;14.48;88.78;95565.63;4977588;28;20200;-89
2023/05/20 03:01:49;;;;;;;6.87;6.37;;;;;;;14.47;88.85;95559.66;4984192;28;20575;-89
2023/05/20 03:04:17;;;;;;;7.45;6.15;;;;;;;14.51;88.51;95553.06;4977496;28;20232;-88
2023/05/20 03:06:45;;;;;;;7.20;6.55;;;;;;;14.54;88.65;95559.66;4977422;28;20216;-89
2023/05/20 03:09:13;;;;;;;7.78;7.07;;;;;;;14.52;88.40;95557.25;4979125;28;20203;-88
2023/05/20 03:11:39;;;;;;;8.23;7.43;;;;;;;14.53;88.76;95555.47;4978463;28;20528;-87
2023/05/20 03:14:06;;;;;;;10.32;9.32;;;;;;;14.40;89.66;95556.28;4976746;28;20227;-88
2023/05/20 03:16:34;;;;;;;10.40;9.30;;;;;;;14.29;90.78;95553.44;4976960;28;20211;-88
2023/05/20 03:19:00;;;;;;;11.20;9.80;;;;;;;14.23;91.94;95544.72;4977420;28;20204;-87
2023/05/20 03:21:28;;;;;;;12.35;10.75;;;;;;;14.15;93.34;95555.25;4976934;28;20216;-89
2023/05/20 03:23:55;;;;;;;12.20;10.57;;;;;;;14.13;94.14;95563.22;4977482;28;20244;-92
2023/05/20 03:26:22;;;;;;;10.97;9.87;;;;;;;14.15;93.88;95560.44;4976425;28;20297;-89
2023/05/20 03:28:49;;;;;;;10.65;9.43;;;;;;;14.21;93.18;95557.06;4977806;28;20207;-90
2023/05/20 03:31:16;;;;;;;13.32;10.20;;;;;;;14.23;92.80;95560.25;4977132;28;20192;-91
2023/05/20 03:33:44;;;;;;;12.98;10.02;;;;;;;14.06;94.36;95559.81;4977285;28;20725;-90
2023/05/20 03:36:10;;;;;;;12.02;10.35;;;;;;;14.04;95.27;95555.84;4977413;28;20810;-89
2023/05/20 03:38:37;;;;;;;13.63;10.05;;;;;;;14.12;94.44;95550.47;4973157;28;20196;-89
2023/05/20 03:41:05;;;;;;;10.88;9.75;;;;;;;14.20;93.79;95559.84;4975509;28;20204;-90
2023/05/20 03:43:31;;;;;;;10.73;9.40;;;;;;;14.21;94.20;95559.66;4975908;28;20259;-89
2023/05/20 03:45:58;;;;;;;11.55;10.18;;;;;;;14.18;94.41;95568.59;4974941;28;20582;-89
2023/05/20 03:48:24;;;;;;;15.35;10.95;;;;;;;14.24;94.26;95566.22;4973483;28;20204;-90
2023/05/20 03:50:51;;;;;;;14.15;10.60;;;;;;;14.24;93.58;95566.22;4974907;28;20200;-89
2023/05/20 03:53:19;;;;;;;14.02;10.40;;;;;;;14.20;94.49;95568.41;4972272;28;20224;-89
2023/05/20 03:55:45;;;;;;;13.48;10.85;;;;;;;14.14;94.96;95569.19;4973019;28;20203;-89
2023/05/20 03:58:14;;;;;;;11.25;10.10;;;;;;;14.16;94.80;95578.38;4985182;28;20199;-89
2023/05/20 04:00:40;;;;;;;13.13;10.65;;;;;;;14.23;94.37;95569.81;4979817;28;20220;-89
2023/05/20 04:03:10;;;;;;;14.85;11.27;;;;;;;14.29;94.14;95569.78;4972353;28;20218;-91
2023/05/20 04:05:37;;;;;;;13.55;11.90;;;;;;;14.22;94.66;95566.41;4972982;28;20208;-90
2023/05/20 04:08:04;;;;;;;13.95;11.95;;;;;;;14.15;95.42;95569.00;4973182;28;20224;-91
2023/05/20 04:10:33;;;;;;;13.32;11.85;;;;;;;14.13;95.45;95565.81;4973863;28;20415;-92
2023/05/20 04:12:59;;;;;;;14.60;11.25;;;;;;;14.16;95.34;95554.25;4973638;28;20215;-90
2023/05/20 04:15:29;;;;;;;14.70;11.15;;;;;;;14.23;94.70;95551.69;4973434;28;20204;-90
2023/05/20 04:17:56;;;;;;;13.63;11.30;;;;;;;14.09;95.37;95554.25;4974105;28;20208;-90
2023/05/20 04:20:23;;;;;;;13.38;12.07;;;;;;;14.09;96.01;95556.84;4973679;28;20291;-90
2023/05/20 04:22:49;;;;;;;14.98;12.25;;;;;;;14.11;96.12;95556.63;4973539;28;20204;-90
2023/05/20 04:25:16;;;;;;;15.63;12.77;;;;;;;14.07;96.63;95551.06;4973594;28;20286;-89
2023/05/20 04:27:43;;;;;;;13.85;11.88;;;;;;;14.13;96.26;95550.28;4973611;28;20232;-89
2023/05/20 04:30:10;;;;;;;13.43;12.02;;;;;;;14.15;96.24;95550.88;4973333;28;20200;-90
2023/05/20 04:32:38;;;;;;;14.15;12.73;;;;;;;14.13;96.57;95552.06;4973420;28;20226;-91
2023/05/20 04:35:07;;;;;;;14.50;13.03;;;;;;;14.02;98.11;95545.69;4973754;28;20228;-90
2023/05/20 04:37:36;;;;;;;14.52;13.02;;;;;;;14.04;97.37;95545.50;4973457;28;20689;-89
2023/05/20 04:40:05;;;;;;;14.18;12.77;;;;;;;13.96;98.82;95551.66;4972958;28;20197;-89
2023/05/20 04:42:32;;;;;;;14.85;13.45;;;;;;;13.89;99.91;95550.06;4972653;28;20896;-89
2023/05/20 04:45:00;;;;;;;14.93;13.38;;;;;;;13.89;99.54;95550.84;4973083;28;20266;-89
2023/05/20 04:47:27;;;;;;;14.32;12.82;;;;;;;13.99;98.35;95543.50;4973848;28;20283;-90
2023/05/20 04:49:56;;;;;;;14.80;13.30;;;;;;;13.99;98.92;95548.69;4973463;28;20208;-92
2023/05/20 04:52:23;;;;;;;14.88;13.27;;;;;;;14.05;98.87;95547.06;4979007;28;20231;-89
2023/05/20 04:54:49;;;;;;;16.08;12.73;;;;;;;13.99;99.89;95543.50;4984833;28;20226;-89
2023/05/20 04:57:19;;;;;;;16.42;13.75;;;;;;;14.11;98.72;95551.47;4992243;28;20261;-89
2023/05/20 04:59:46;;;;;;;15.55;13.88;;;;;;;14.09;98.66;95558.63;4991834;28;20286;-89
2023/05/20 05:02:13;;;;;;;15.68;13.75;;;;;;;14.06;98.59;95553.84;4972505;28;20214;-89
2023/05/20 05:04:39;;;;;;;16.13;14.43;;;;;;;14.01;99.23;95554.47;4973214;28;20231;-88
2023/05/20 05:07:07;;;;;;;15.85;14.13;;;;;;;14.06;98.80;95553.84;4972951;28;20228;-89
2023/05/20 05:09:33;;;;;;;16.35;14.05;;;;;;;14.07;98.39;95553.66;4973171;28;20288;-89
2023/05/20 05:12:01;;;;;;;15.35;13.70;;;;;;;14.05;98.51;95550.47;4972248;28;20223;-90
2023/05/20 05:14:30;;;;;;;15.40;12.98;;;;;;;14.01;98.64;95543.31;4972624;28;20224;-89
2023/05/20 05:16:56;;;;;;;15.18;12.80;;;;;;;13.96;99.30;95550.88;4972476;28;20686;-88
2023/05/20 05:19:23;;;;;;;15.20;12.43;;;;;;;14.00;98.92;95544.31;4972773;28;20254;-88
2023/05/20 05:21:50;;;;;;;14.07;12.57;;;;;;;14.04;98.64;95537.75;4973340;28;20205;-90
2023/05/20 05:24:17;;;;;;;14.70;12.83;;;;;;;14.16;97.59;95536.94;4973051;28;20311;-89
2023/05/20 05:26:44;;;;;;;14.02;12.73;;;;;;;14.27;96.97;95534.72;4972906;28;20228;-89
2023/05/20 05:29:11;;;;;;;14.03;12.53;;;;;;;14.34;96.45;95531.13;4973367;28;20262;-88
2023/05/20 05:31:37;;;;;;;14.70;13.13;;;;;;;14.35;96.72;95531.94;4971640;28;20222;-89
2023/05/20 05:34:03;;;;;;;14.15;12.80;;;;;;;14.46;95.57;95533.94;4970519;28;20231;-88
2023/05/20 05:36:32;;;;;;;15.98;13.73;;;;;;;14.49;95.42;95538.72;4970321;28;20207;-89
2023/05/20 05:38:59;;;;;;;15.70;13.50;;;;;;;14.46;95.83;95537.31;4970065;28;20207;-88
2023/05/20 05:41:26;;;;;;;15.43;13.70;;;;;;;14.41;96.39;95536.34;4970181;28;20208;-89
2023/05/20 05:43:54;;;;;;;18.77;14.50;;;;;;;14.41;96.22;95533.75;4969963;28;20602;-89
2023/05/20 05:46:20;;;;;;;18.58;15.40;;;;;;;14.32;96.74;95540.91;4969705;28;20247;-89
2023/05/20 05:48:47;;;;;;;18.30;15.20;;;;;;;14.20;97.96;95539.13;4971075;28;20208;-89
2023/05/20 05:51:14;;;;;;;17.20;15.48;;;;;;;14.16;97.85;95541.31;4980842;28;20196;-90
2023/05/20 05:53:40;;;;;;;16.75;15.05;;;;;;;14.24;97.61;95546.28;4989122;28;20231;-89
2023/05/20 05:56:07;;;;;;;16.67;14.93;;;;;;;14.27;97.45;95545.88;4989381;28;20203;-89
2023/05/20 05:58:35;;;;;;;16.92;15.05;;;;;;;14.32;97.48;95551.25;4989223;28;20207;-89
2023/05/20 06:01:02;;;;;;;16.63;14.93;;;;;;;14.25;97.67;95554.84;4977768;28;20196;-89
2023/05/20 06:03:28;;;;;;;17.90;15.43;;;;;;;14.20;98.12;95557.25;4969218;28;20307;-89
2023/05/20 06:05:55;;;;;;;17.27;15.43;;;;;;;14.14;98.08;95551.88;4969748;28;20207;-89
2023/05/20 06:08:21;;;;;;;16.42;14.73;;;;;;;14.15;98.01;95548.28;4970329;28;20204;-90
2023/05/20 06:10:48;;;;;;;18.65;14.82;;;;;;;14.13;97.67;95558.03;4969618;28;20206;-89
2023/05/20 06:13:15;;;;;;;16.60;14.88;;;;;;;14.17;96.78;95555.84;4969344;28;20726;-89
2023/05/20 06:15:44;;;;;;;16.45;14.75;;;;;;;14.29;95.92;95545.69;4975195;28;20242;-88
2023/05/20 06:18:12;;;;;;;16.10;13.98;;;;;;;14.27;95.88;95547.66;4969450;28;20231;-89
2023/05/20 06:20:41;;;;;;;16.17;14.43;;;;;;;14.15;96.68;95542.31;4969371;28;20215;-89
2023/05/20 06:23:07;;;;;;;15.82;14.23;;;;;;;14.18;96.41;95539.31;4972645;28;20203;-90
2023/05/20 06:25:34;;;;;;;15.65;14.05;;;;;;;14.25;96.03;95554.84;4973390;28;20207;-89
2023/05/20 06:28:00;;;;;;;16.77;14.40;;;;;;;14.35;95.25;95544.88;4973222;28;20877;-88
2023/05/20 06:30:27;;;;;;;15.00;13.45;;;;;;;14.34;94.93;95544.09;4973574;28;20204;-88
2023/05/20 06:32:54;;;;;;;17.98;14.13;;;;;;;14.36;94.05;95541.31;4973213;28;20208;-89
2023/05/20 06:35:21;;;;;;;16.17;14.02;;;;;;;14.33;95.49;95546.88;4973263;28;20239;-89
2023/05/20 06:37:47;;;;;;;15.40;13.52;;;;;;;14.34;95.80;95533.72;4973438;28;20196;-89
2023/05/20 06:40:14;;;;;;;14.85;13.25;;;;;;;14.47;94.83;95533.75;4973753;28;20206;-88
2023/05/20 06:42:41;;;;;;;15.95;14.25;;;;;;;14.59;94.65;95541.72;4973359;28;20231;-89
2023/05/20 06:45:12;;;;;;;16.10;13.75;;;;;;;14.66;93.83;95537.28;4976542;28;20231;-89
2023/05/20 06:47:39;;;;;;;14.45;12.55;;;;;;;14.74;92.74;95537.09;4984129;28;20255;-89
2023/05/20 06:50:07;;;;;;;15.25;13.68;;;;;;;14.70;90.84;95533.31;4993126;28;20203;-90
2023/05/20 06:52:34;;;;;;;15.63;13.68;;;;;;;14.68;90.91;95542.28;4992193;28;20696;-89
2023/05/20 06:55:00;;;;;;;14.15;12.63;;;;;;;14.72;91.16;95536.50;4992551;28;20227;-89
2023/05/20 06:57:27;;;;;;;15.15;13.48;;;;;;;14.77;90.92;95528.91;4992450;28;20697;-89
2023/05/20 06:59:55;;;;;;;15.15;13.00;;;;;;;14.81;90.77;95531.91;4990139;28;20677;-90
2023/05/20 07:02:22;;;;;;;16.35;13.70;;;;;;;14.77;90.01;95536.69;4972095;28;20211;-90
2023/05/20 07:04:49;;;;;;;15.00;13.52;;;;;;;14.77;90.40;95530.72;4972746;28;20235;-89
2023/05/20 07:07:17;;;;;;;14.07;12.68;;;;;;;14.86;90.27;95530.25;4972930;28;20230;-88
2023/05/20 07:09:43;;;;;;;15.38;13.63;;;;;;;14.90;89.67;95532.44;4972688;28;20208;-92
2023/05/20 07:12:10;;;;;;;17.17;13.45;;;;;;;14.84;89.26;95532.25;4978199;28;20751;-90
2023/05/20 07:14:36;;;;;;;14.70;13.10;;;;;;;14.81;89.13;95530.09;4972499;28;20223;-88
2023/05/20 07:17:05;;;;;;;14.82;13.18;;;;;;;14.89;89.03;95523.88;4973193;28;20200;-89
2023/05/20 07:19:32;;;;;;;14.55;13.05;;;;;;;14.90;89.79;95522.88;4972527;28;20708;-89
2023/05/20 07:21:59;;;;;;;14.90;12.35;;;;;;;15.09;89.23;95513.44;4974354;28;20207;-88
2023/05/20 07:24:27;;;;;;;13.70;12.32;;;;;;;15.17;87.97;95518.41;4973718;28;20251;-90
2023/05/20 07:26:53;;;;;;;14.27;12.77;;;;;;;15.22;87.60;95513.38;4973139;28;20227;-89
2023/05/20 07:29:19;;;;;;;13.60;12.15;;;;;;;15.36;87.21;95507.13;4973209;28;20212;-90
2023/05/20 07:31:46;;;;;;;13.32;11.93;;;;;;;15.41;85.57;95506.50;4973215;28;20211;-90
2023/05/20 07:34:12;;;;;;;13.38;12.05;;;;;;;15.31;84.73;95516.53;4973051;28;20624;-89
2023/05/20 07:36:39;;;;;;;14.38;12.07;;;;;;;15.14;85.38;95513.63;4974009;28;20208;-90
2023/05/20 07:39:05;;;;;;;12.65;11.52;;;;;;;15.14;85.49;95517.00;4974066;28;20208;-88
2023/05/20 07:41:33;;;;;;;15.93;13.40;;;;;;;15.13;86.18;95512.03;4979639;28;20282;-89
2023/05/20 07:44:02;;;;;;;12.95;11.65;;;;;;;15.12;86.40;95516.41;4983698;28;20223;-90
2023/05/20 07:46:29;;;;;;;13.25;11.85;;;;;;;15.15;85.90;95507.44;4992811;28;20724;-86
2023/05/20 07:48:55;;;;;;;14.35;12.93;;;;;;;15.10;84.64;95507.25;4993165;28;20210;-89
2023/05/20 07:51:22;;;;;;;16.38;14.65;;;;;;;15.02;85.67;95507.47;4992739;28;20208;-89
2023/05/20 07:53:48;;;;;;;16.55;14.73;;;;;;;15.11;85.87;95512.22;4992424;28;20225;-88
2023/05/20 07:56:16;;;;;;;16.67;14.98;;;;;;;15.32;85.62;95505.16;4992542;28;20203;-89
2023/05/20 07:58:51;;;;;;;16.95;15.15;;;;;;;15.28;85.44;95527.31;4991267;28;20219;-89
2023/05/20 08:01:17;;;;;;;16.75;14.93;;;;;;;15.36;86.13;95516.72;4978032;28;20200;-91
2023/05/20 08:03:44;;;;;;;16.05;14.35;;;;;;;15.49;85.36;95511.44;4971209;28;20224;-88
2023/05/20 08:06:10;;;;;;;14.38;12.60;;;;;;;15.50;83.53;95507.84;4972547;28;20208;-89
2023/05/20 08:08:43;;;;;;;15.40;13.80;;;;;;;15.76;83.75;95509.53;4973309;28;20231;-88
2023/05/20 08:11:09;;;;;;;15.13;13.73;;;;;;;16.00;82.77;95500.94;4971693;28;20211;-88
2023/05/20 08:13:36;;;;;;;14.02;12.73;;;;;;;16.20;81.43;95511.16;4972307;28;20220;-88
2023/05/20 08:16:05;;;;;;;13.50;12.10;;;;;;;16.44;79.78;95506.97;4972436;28;20210;-90
2023/05/20 08:18:32;;;;;;;12.93;11.82;;;;;;;16.64;77.86;95502.38;4972066;28;20196;-88
2023/05/20 08:20:59;;;;;;;12.95;11.57;;;;;;;16.61;77.11;95500.19;4972662;28;20282;-91
2023/05/20 08:23:26;;;;;;;11.90;10.82;;;;;;;16.74;76.53;95499.31;4972880;28;20238;-90
2023/05/20 08:25:52;;;;;;;12.52;11.35;;;;;;;16.75;75.66;95483.47;4973507;28;20212;-88
2023/05/20 08:28:19;;;;;;;12.15;11.05;;;;;;;16.74;77.02;95492.25;4972203;28;20232;-88
2023/05/20 08:30:47;;;;;;;11.52;10.55;;;;;;;16.86;76.23;95490.56;4971459;28;20228;-89
2023/05/20 08:33:20;;;;;;;11.48;10.48;;;;;;;16.93;76.51;95483.44;4971082;28;20210;-91
2023/05/20 08:35:47;;;;;;;10.80;9.90;;;;;;;16.99;76.31;95494.00;4971329;28;20283;-88
2023/05/20 08:38:14;;;;;;;10.25;9.35;;;;;;;17.17;75.36;95496.56;4978332;28;20204;-88
2023/05/20 08:40:40;;;;;;;9.68;8.77;;;;;;;17.38;74.24;95485.69;4986963;28;20207;-89
2023/05/20 08:43:07;;;;;;;9.35;8.57;;;;;;;17.43;72.39;95475.41;4990436;28;20587;-89
2023/05/20 08:45:36;;;;;;;9.98;9.18;;;;;;;17.44;72.29;95477.00;4990372;28;20200;-89
2023/05/20 08:48:04;;;;;;;9.48;8.68;;;;;;;17.52;74.15;95468.88;4989870;28;20314;-88
2023/05/20 08:50:32;;;;;;;17.75;12.27;;;;;;;17.57;73.87;95474.22;4990254;28;20203;-88
2023/05/20 08:53:02;;;;;;;12.25;10.95;;;;;;;17.57;72.22;95463.78;4990336;28;20214;-88
2023/05/20 08:55:38;;;;;;;10.13;9.15;;;;;;;17.38;71.44;95470.06;4990480;28;20207;-90
2023/05/20 08:58:05;;;;;;;14.68;13.00;;;;;;;17.41;72.25;95479.25;4990381;28;20199;-88
2023/05/20 09:00:32;;;;;;;10.13;8.02;;;;;;;17.41;72.86;95479.25;4982533;28;20204;-89
2023/05/20 09:02:59;;;;;;;8.73;7.47;;;;;;;17.51;70.44;95476.94;4970297;28;20208;-87
2023/05/20 09:09:40;;;;;;;8.32;7.50;;;;;;;18.10;70.39;95481.22;4970359;28;20226;-88
2023/05/20 09:12:10;;;;;;;7.90;7.20;;;;;;;18.19;69.46;95477.28;4980619;28;20290;-89
2023/05/20 09:14:36;;;;;;;7.97;7.28;;;;;;;18.25;68.77;95479.00;4981953;28;20218;-90
2023/05/20 09:17:07;;;;;;;7.20;6.50;;;;;;;18.43;68.81;95477.28;4989726;28;20207;-88
2023/05/20 09:19:33;;;;;;;9.20;8.27;;;;;;;18.56;67.15;95482.25;4989386;28;20203;-88
2023/05/20 09:22:00;;;;;;;7.70;7.10;;;;;;;18.58;66.58;95478.41;4989421;28;20211;-89
2023/05/20 09:24:26;;;;;;;10.40;9.50;;;;;;;18.64;67.20;95479.34;4989412;28;20230;-88
2023/05/20 09:26:53;;;;;;;7.03;6.43;;;;;;;18.66;67.50;95479.91;4989707;28;20218;-89
2023/05/20 09:29:21;;;;;;;6.85;6.35;;;;;;;18.71;67.54;95474.78;4991309;28;20253;-88
2023/05/20 09:31:48;;;;;;;6.82;6.07;;;;;;;18.82;67.75;95467.97;4989968;28;20204;-88
2023/05/20 09:34:15;;;;;;;6.43;5.93;;;;;;;18.89;65.93;95477.22;4982321;28;20653;-89
2023/05/20 09:36:43;;;;;;;8.70;6.10;;;;;;;19.09;65.99;95465.59;4982410;28;20204;-88
2023/05/20 09:39:16;;;;;;;14.77;13.40;;;;;;;19.28;65.85;95457.34;4978367;28;20385;-88
2023/05/20 09:41:53;;;;;;;14.52;12.50;;;;;;;19.39;64.67;95457.56;4970354;28;20594;-90
2023/05/20 09:44:22;;;;;;;7.45;6.85;;;;;;;19.32;64.17;95461.09;4970400;28;20578;-89
2023/05/20 09:46:51;;;;;;;6.57;5.40;;;;;;;19.29;63.04;95458.16;4969989;28;20239;-90
2023/05/20 09:49:22;;;;;;;6.35;5.40;;;;;;;19.30;64.10;95467.56;4970157;28;20228;-89
2023/05/20 09:51:50;;;;;;;5.82;5.30;;;;;;;19.21;63.14;95448.09;4970578;28;20212;-88
2023/05/20 09:54:19;;;;;;;5.47;5.07;;;;;;;19.27;63.31;95447.16;4969975;28;20224;-88
2023/05/20 09:56:49;;;;;;;5.30;4.90;;;;;;;19.32;61.29;95442.81;4969362;28;20222;-89
2023/05/20 09:59:17;;;;;;;5.38;4.72;;;;;;;19.63;60.68;95440.75;4969952;28;20204;-88
2023/05/20 10:01:48;;;;;;;4.93;4.53;;;;;;;19.80;59.90;95444.19;4968870;28;20917;-88
2023/05/20 10:04:21;;;;;;;5.78;4.78;;;;;;;19.73;58.94;95438.31;4969518;28;20263;-90
2023/05/20 10:07:11;;;;;;;6.60;5.10;;;;;;;19.72;59.04;95436.72;4970436;28;20200;-90
2023/05/20 10:09:48;;;;;;;5.50;5.00;;;;;;;19.71;59.16;95429.91;4969636;28;20197;-88
2023/05/20 10:12:31;;;;;;;5.05;4.63;;;;;;;19.67;60.93;95436.63;4969725;28;20192;-88
2023/05/20 10:15:10;;;;;;;4.65;4.25;;;;;;;19.56;59.54;95432.28;4969571;28;20232;-88
2023/05/20 10:17:46;;;;;;;5.35;3.92;;;;;;;19.34;59.17;95442.59;4969835;28;20200;-89
2023/05/20 10:20:13;;;;;;;4.20;3.83;;;;;;;19.27;59.57;95431.47;4970020;28;20246;-89
2023/05/20 10:22:40;;;;;;;4.38;4.00;;;;;;;19.14;60.16;95426.56;4969255;28;20215;-88
2023/05/20 10:25:11;;;;;;;4.57;4.18;;;;;;;19.00;60.56;95430.47;4969343;28;20220;-88
2023/05/20 10:27:45;;;;;;;4.50;4.10;;;;;;;19.09;61.49;95434.28;4969561;28;20236;-88
2023/05/20 10:30:16;;;;;;;4.50;4.10;;;;;;;19.23;61.16;95427.78;4973913;28;20199;-89
2023/05/20 10:32:49;;;;;;;4.43;3.97;;;;;;;19.22;61.45;95424.38;4980476;28;20195;-88
2023/05/20 10:35:22;;;;;;;4.43;4.13;;;;;;;19.40;60.95;95430.41;4988942;28;20333;-88
2023/05/20 10:37:48;;;;;;;5.00;4.55;;;;;;;19.71;59.23;95416.84;4988261;28;20732;-88
2023/05/20 10:40:18;;;;;;;4.90;4.40;;;;;;;20.09;59.61;95410.09;4969638;28;20621;-88
2023/05/20 10:42:48;;;;;;;4.97;3.92;;;;;;;20.26;59.28;95414.25;4969814;28;20196;-89
2023/05/20 10:45:31;;;;;;;4.65;4.25;;;;;;;20.39;59.58;95397.47;4970251;28;20232;-88
2023/05/20 10:47:59;;;;;;;5.32;4.82;;;;;;;20.52;57.58;95397.13;4969586;28;20243;-88
2023/05/20 10:50:27;;;;;;;5.32;4.22;;;;;;;20.90;57.50;95391.03;4969705;28;20212;-89
2023/05/20 10:52:54;;;;;;;4.32;3.88;;;;;;;21.02;56.44;95386.41;4969580;28;20204;-88
2023/05/20 10:55:22;;;;;;;4.53;4.03;;;;;;;21.12;56.79;95387.56;4969406;28;20224;-88
2023/05/20 10:57:49;;;;;;;4.70;4.30;;;;;;;21.25;56.86;95393.22;4969176;28;20681;-90
2023/05/20 11:00:17;;;;;;;4.47;4.07;;;;;;;21.24;56.97;95381.16;4969291;28;20688;-89
2023/05/20 11:02:45;;;;;;;4.60;4.20;;;;;;;21.26;56.57;95383.53;4968175;28;20204;-88
2023/05/20 11:05:13;;;;;;;3.90;3.60;;;;;;;21.34;56.61;95385.72;4968968;28;20243;-89
2023/05/20 11:07:40;;;;;;;4.43;4.05;;;;;;;21.48;55.72;95379.03;4969254;28;20212;-89
2023/05/20 11:10:09;;;;;;;3.85;3.22;;;;;;;21.75;55.53;95376.34;4971320;28;20716;-88
2023/05/20 11:12:36;;;;;;;4.25;3.38;;;;;;;21.93;53.52;95375.19;4972506;28;20204;-89
2023/05/20 11:15:05;;;;;;;3.50;3.20;;;;;;;22.09;51.81;95370.84;4972296;28;20251;-90
2023/05/20 11:17:32;;;;;;;3.33;3.13;;;;;;;22.03;53.20;95380.50;4972380;28;20208;-90
2023/05/20 11:19:59;;;;;;;3.92;3.50;;;;;;;22.09;52.22;95373.47;4973099;28;20627;-88
2023/05/20 11:22:30;;;;;;;4.85;3.70;;;;;;;22.11;52.16;95372.19;4972453;28;20204;-89
2023/05/20 11:24:57;;;;;;;4.00;3.25;;;;;;;22.39;52.53;95365.75;4972420;28;20219;-89
2023/05/20 11:27:26;;;;;;;3.47;3.17;;;;;;;22.54;50.79;95357.13;4980171;28;20196;-89
2023/05/20 11:29:58;;;;;;;3.40;3.10;;;;;;;22.45;51.36;95363.94;4989421;28;20222;-89
2023/05/20 11:32:25;;;;;;;3.65;3.35;;;;;;;22.25;49.97;95351.50;4991613;28;20287;-91
2023/05/20 11:34:53;;;;;;;4.57;3.35;;;;;;;22.32;53.13;95352.09;4991711;28;20305;-89